createdAt,value
2018-06-22T00:01:06.762Z,56.32
2018-06-22T00:03:34.972Z,55.84
2018-06-22T00:06:03.172Z,55.92
2018-06-22T00:08:31.384Z,56.79
2018-06-22T00:10:59.567Z,56.08
2018-06-22T00:13:27.792Z,56.07
2018-06-22T00:15:56.034Z,56.56
2018-06-22T00:18:24.232Z,57.12
2018-06-22T00:20:52.417Z,56.14
2018-06-22T00:23:20.640Z,56.42
2018-06-22T00:25:48.821Z,56.59
2018-06-22T00:28:17.180Z,56.80
2018-06-22T00:30:45.355Z,56.30
2018-06-22T00:33:13.540Z,55.69
2018-06-22T00:35:41.749Z,56.22
2018-06-22T00:38:09.948Z,56.67
2018-06-22T00:40:38.159Z,55.65
2018-06-22T00:43:06.358Z,56.31
2018-06-22T00:45:34.653Z,56.90
2018-06-22T00:48:02.862Z,55.96
2018-06-22T00:50:31.163Z,55.62
2018-06-22T00:52:59.405Z,55.61
2018-06-22T00:55:27.612Z,56.08
2018-06-22T00:57:55.789Z,55.50
2018-06-22T01:00:24.013Z,55.84
2018-06-22T01:02:52.232Z,55.71
2018-06-22T01:05:20.413Z,55.56
2018-06-22T01:07:48.592Z,55.80
2018-06-22T01:10:16.826Z,56.31
2018-06-22T01:12:45.024Z,55.57
2018-06-22T01:15:13.248Z,55.61
2018-06-22T01:17:41.464Z,55.33
2018-06-22T01:20:09.636Z,55.51
2018-06-22T01:22:37.824Z,56.55
2018-06-22T01:25:06.066Z,56.14
2018-06-22T01:27:34.296Z,56.23
2018-06-22T01:30:02.481Z,56.18
2018-06-22T01:32:30.676Z,56.30
2018-06-22T01:34:58.900Z,57.10
2018-06-22T01:37:27.178Z,56.26
2018-06-22T01:39:55.512Z,56.97
2018-06-22T01:42:23.739Z,56.10
2018-06-22T01:44:51.958Z,56.75
2018-06-22T01:47:20.201Z,57.23
2018-06-22T01:49:48.521Z,57.44
2018-06-22T01:52:17.016Z,57.27
2018-06-22T01:54:45.284Z,56.51
2018-06-22T01:57:13.529Z,57.00
2018-06-22T01:59:41.745Z,57.23
2018-06-22T02:02:10.045Z,57.88
2018-06-22T02:04:38.278Z,57.36
2018-06-22T02:07:06.568Z,57.95
2018-06-22T02:09:34.772Z,58.12
2018-06-22T02:12:03.013Z,57.29
2018-06-22T02:14:31.245Z,57.86
2018-06-22T02:16:59.482Z,57.29
2018-06-22T02:19:27.732Z,57.93
2018-06-22T02:21:55.965Z,58.19
2018-06-22T02:24:24.180Z,58.53
2018-06-22T02:26:52.642Z,58.53
2018-06-22T02:29:20.897Z,58.58
2018-06-22T02:31:49.160Z,58.72
2018-06-22T02:34:17.369Z,58.48
2018-06-22T02:36:45.575Z,57.92
2018-06-22T02:39:14.093Z,59.02
2018-06-22T02:41:42.317Z,58.23
2018-06-22T02:44:10.572Z,58.70
2018-06-22T02:46:38.844Z,58.05
2018-06-22T02:49:07.098Z,57.95
2018-06-22T02:51:35.314Z,58.41
2018-06-22T02:54:03.589Z,58.45
2018-06-22T02:56:31.864Z,58.55
2018-06-22T02:59:00.089Z,58.20
2018-06-22T03:01:28.318Z,58.53
2018-06-22T03:03:56.521Z,58.65
2018-06-22T03:06:24.804Z,58.51
2018-06-22T03:08:53.073Z,58.64
2018-06-22T03:11:21.422Z,58.30
2018-06-22T03:13:49.637Z,58.22
2018-06-22T03:16:17.847Z,58.88
2018-06-22T03:18:46.082Z,58.90
2018-06-22T03:21:14.457Z,58.31
2018-06-22T03:23:42.904Z,59.48
2018-06-22T03:26:11.173Z,59.15
2018-06-22T03:28:39.395Z,59.31
2018-06-22T03:31:08.250Z,59.23
2018-06-22T03:33:36.482Z,59.96
2018-06-22T03:36:04.925Z,60.07
2018-06-22T03:38:33.201Z,60.52
2018-06-22T03:41:01.397Z,60.04
2018-06-22T03:43:29.617Z,59.38
2018-06-22T03:45:57.829Z,60.15
2018-06-22T03:48:26.212Z,60.72
2018-06-22T03:50:54.436Z,60.93
2018-06-22T03:53:22.645Z,60.60
2018-06-22T03:55:50.853Z,60.17
2018-06-22T03:58:19.108Z,60.69
2018-06-22T04:00:47.412Z,60.30
2018-06-22T04:03:15.716Z,60.75
2018-06-22T04:05:43.926Z,60.48
2018-06-22T04:08:12.147Z,59.70
2018-06-22T04:10:40.370Z,60.77
2018-06-22T04:13:08.664Z,60.92
2018-06-22T04:15:36.891Z,61.49
2018-06-22T04:18:05.153Z,60.33
2018-06-22T04:20:33.386Z,61.06
2018-06-22T04:23:01.633Z,61.04
2018-06-22T04:25:29.921Z,61.42
2018-06-22T04:27:58.232Z,61.11
2018-06-22T04:30:26.461Z,61.56
2018-06-22T04:32:54.834Z,61.68
2018-06-22T04:35:23.037Z,62.05
2018-06-22T04:37:51.248Z,61.37
2018-06-22T04:40:19.526Z,61.97
2018-06-22T04:42:48.669Z,61.52
2018-06-22T04:45:16.985Z,62.06
2018-06-22T04:47:45.231Z,61.72
2018-06-22T04:50:13.516Z,61.53
2018-06-22T04:52:41.797Z,62.12
2018-06-22T04:55:10.044Z,61.63
2018-06-22T04:57:38.245Z,62.26
2018-06-22T05:00:06.591Z,62.73
2018-06-22T05:02:34.809Z,62.62
2018-06-22T05:05:03.130Z,62.70
2018-06-22T05:07:31.408Z,63.19
2018-06-22T05:09:59.705Z,62.96
2018-06-22T05:12:27.997Z,62.81
2018-06-22T05:14:56.212Z,62.92
2018-06-22T05:17:24.458Z,62.41
2018-06-22T05:19:52.692Z,62.64
2018-06-22T05:22:20.953Z,62.31
2018-06-22T05:24:49.242Z,63.00
2018-06-22T05:27:17.443Z,62.79
2018-06-22T05:29:45.678Z,62.79
2018-06-22T05:32:13.970Z,63.35
2018-06-22T05:34:42.223Z,63.03
2018-06-22T05:37:10.449Z,63.06
2018-06-22T05:39:39.165Z,62.40
2018-06-22T05:42:07.549Z,62.79
2018-06-22T05:44:35.774Z,61.94
2018-06-22T05:47:03.989Z,62.06
2018-06-22T05:49:32.211Z,62.60
2018-06-22T05:52:00.486Z,62.72
2018-06-22T05:54:28.697Z,62.44
2018-06-22T05:56:56.925Z,62.48
2018-06-22T05:59:25.129Z,63.06
2018-06-22T06:01:53.808Z,63.06
2018-06-22T06:04:22.025Z,63.09
2018-06-22T06:06:50.321Z,61.41
2018-06-22T06:09:18.584Z,61.79
2018-06-22T06:11:46.821Z,61.94
2018-06-22T06:14:15.065Z,62.44
2018-06-22T06:16:43.278Z,61.74
2018-06-22T06:19:11.681Z,62.19
2018-06-22T06:21:39.932Z,61.38
2018-06-22T06:24:08.228Z,61.11
2018-06-22T06:26:36.494Z,61.92
2018-06-22T06:29:04.716Z,62.17
2018-06-22T06:31:32.924Z,62.21
2018-06-22T06:34:01.135Z,61.90
2018-06-22T06:36:30.101Z,61.49
2018-06-22T06:38:58.297Z,62.24
2018-06-22T06:41:26.597Z,60.66
2018-06-22T06:43:54.867Z,62.23
2018-06-22T06:46:23.122Z,61.05
2018-06-22T06:48:51.350Z,61.20
2018-06-22T06:51:19.661Z,59.75
2018-06-22T06:53:47.881Z,60.71
2018-06-22T06:56:16.157Z,59.46
2018-06-22T06:58:44.365Z,61.00
2018-06-22T07:01:12.597Z,60.02
2018-06-22T07:03:40.919Z,60.27
2018-06-22T07:06:09.127Z,59.93
2018-06-22T07:08:37.403Z,61.32
2018-06-22T07:11:05.669Z,58.97
2018-06-22T07:13:33.977Z,59.38
2018-06-22T07:16:02.209Z,59.78
2018-06-22T07:18:30.446Z,58.57
2018-06-22T07:20:58.733Z,59.66
2018-06-22T07:23:26.941Z,59.69
2018-06-22T07:25:55.185Z,59.97
2018-06-22T07:28:23.524Z,60.78
2018-06-22T07:30:51.741Z,60.18
2018-06-22T07:33:19.967Z,60.01
2018-06-22T07:35:48.389Z,59.52
2018-06-22T07:38:16.760Z,60.23
2018-06-22T07:40:45.012Z,60.35
2018-06-22T07:43:13.244Z,59.80
2018-06-22T07:45:41.481Z,60.32
2018-06-22T07:48:09.676Z,59.81
2018-06-22T07:50:37.904Z,59.53
2018-06-22T07:53:06.157Z,59.51
2018-06-22T07:55:34.416Z,58.69
2018-06-22T07:58:02.641Z,57.77
2018-06-22T08:00:31.040Z,57.69
2018-06-22T08:02:59.294Z,58.01
2018-06-22T08:05:27.528Z,57.59
2018-06-22T08:07:55.789Z,57.42
2018-06-22T08:10:24.004Z,57.57
2018-06-22T08:12:52.237Z,58.20
2018-06-22T08:15:20.464Z,58.09
2018-06-22T08:17:48.709Z,58.44
2018-06-22T08:20:16.957Z,57.70
2018-06-22T08:22:45.164Z,57.01
2018-06-22T08:25:13.489Z,56.24
2018-06-22T08:27:41.737Z,57.17
2018-06-22T08:30:10.021Z,56.79
2018-06-22T08:32:38.272Z,55.49
2018-06-22T08:35:07.033Z,56.17
2018-06-22T08:37:35.373Z,56.35
2018-06-22T08:40:03.645Z,55.82
2018-06-22T08:42:31.877Z,56.48
2018-06-22T08:45:00.107Z,55.28
2018-06-22T08:47:28.422Z,56.71
2018-06-22T08:49:56.661Z,55.42
2018-06-22T08:52:24.862Z,57.41
2018-06-22T08:54:53.065Z,59.75
2018-06-22T08:57:21.320Z,62.62
2018-06-22T08:59:49.543Z,62.92
2018-06-22T09:02:17.853Z,62.38
2018-06-22T09:04:46.218Z,62.35
2018-06-22T09:07:14.463Z,60.75
2018-06-22T09:09:42.716Z,60.56
2018-06-22T09:12:10.973Z,59.42
2018-06-22T09:14:39.185Z,59.60
2018-06-22T09:17:07.397Z,58.39
2018-06-22T09:19:35.725Z,58.77
2018-06-22T09:22:03.917Z,59.57
2018-06-22T09:24:32.173Z,60.01
2018-06-22T09:27:00.405Z,59.73
2018-06-22T09:29:28.616Z,57.05
2018-06-22T09:31:56.849Z,57.78
2018-06-22T09:34:25.108Z,60.62
2018-06-22T09:36:53.478Z,60.34
2018-06-22T09:39:21.704Z,61.01
2018-06-22T09:41:49.937Z,61.27
2018-06-22T09:44:29.445Z,60.13
2018-06-22T09:46:58.139Z,59.04
2018-06-22T09:49:26.780Z,59.79
2018-06-22T09:51:55.377Z,60.03
2018-06-22T09:54:23.640Z,60.03
2018-06-22T09:56:52.367Z,59.49
2018-06-22T09:59:20.937Z,60.66
2018-06-22T10:01:49.466Z,59.76
2018-06-22T10:04:17.688Z,58.51
2018-06-22T10:06:45.962Z,58.01
2018-06-22T10:09:14.212Z,57.90
2018-06-22T10:11:42.513Z,57.73
2018-06-22T10:14:10.776Z,57.77
2018-06-22T10:16:38.991Z,57.59
2018-06-22T10:19:07.242Z,57.04
2018-06-22T10:21:35.441Z,56.06
2018-06-22T10:24:03.737Z,56.37
2018-06-22T10:26:32.084Z,56.87
2018-06-22T10:29:00.299Z,56.43
2018-06-22T10:31:28.553Z,56.49
2018-06-22T10:33:56.823Z,57.14
2018-06-22T10:36:25.038Z,57.32
2018-06-22T10:38:53.356Z,56.99
2018-06-22T10:41:21.669Z,57.54
2018-06-22T10:43:49.912Z,56.63
2018-06-22T10:46:18.199Z,56.34
2018-06-22T10:48:46.528Z,55.96
2018-06-22T10:51:14.864Z,55.88
2018-06-22T10:53:43.145Z,53.82
2018-06-22T10:56:11.463Z,54.50
2018-06-22T10:58:39.756Z,54.64
2018-06-22T11:01:08.021Z,55.70
2018-06-22T11:03:36.300Z,55.00
2018-06-22T11:06:04.606Z,53.91
2018-06-22T11:08:32.839Z,55.33
2018-06-22T11:11:01.054Z,54.87
2018-06-22T11:13:29.352Z,54.42
2018-06-22T11:15:57.577Z,54.51
2018-06-22T11:18:25.922Z,55.00
2018-06-22T11:20:54.127Z,55.42
2018-06-22T11:23:22.364Z,55.67
2018-06-22T11:25:50.625Z,54.34
2018-06-22T11:28:18.961Z,55.13
2018-06-22T11:30:47.245Z,55.75
2018-06-22T11:33:15.448Z,54.80
2018-06-22T11:35:43.886Z,54.29
2018-06-22T11:38:12.009Z,54.87
2018-06-22T11:40:40.292Z,53.34
2018-06-22T11:43:09.060Z,53.63
2018-06-22T11:45:37.563Z,53.16
2018-06-22T11:48:05.989Z,54.59
2018-06-22T11:50:34.257Z,57.52
2018-06-22T11:53:02.473Z,60.54
2018-06-22T11:55:30.712Z,61.50
2018-06-22T11:57:58.973Z,63.73
2018-06-22T12:00:27.263Z,64.96
2018-06-22T12:02:55.485Z,65.16
2018-06-22T12:05:23.776Z,64.98
2018-06-22T12:07:52.085Z,66.11
2018-06-22T12:10:20.384Z,66.60
2018-06-22T12:12:48.673Z,63.79
2018-06-22T12:15:16.921Z,63.06
2018-06-22T12:17:45.116Z,62.12
2018-06-22T12:20:13.389Z,59.66
2018-06-22T12:22:41.589Z,58.09
2018-06-22T12:25:09.829Z,57.62
2018-06-22T12:27:38.038Z,57.94
2018-06-22T12:30:06.269Z,56.88
2018-06-22T12:32:34.512Z,55.22
2018-06-22T12:35:02.769Z,54.33
2018-06-22T12:37:31.035Z,54.62
2018-06-22T12:39:59.316Z,55.37
2018-06-22T12:42:27.569Z,55.31
2018-06-22T12:44:55.889Z,54.89
2018-06-22T12:47:24.114Z,54.32
2018-06-22T12:49:52.400Z,55.55
2018-06-22T12:52:20.597Z,55.39
2018-06-22T12:54:48.882Z,57.61
2018-06-22T12:57:17.140Z,57.22
2018-06-22T12:59:45.390Z,56.84
2018-06-22T13:02:13.639Z,57.42
2018-06-22T13:04:41.857Z,59.77
2018-06-22T13:07:10.093Z,62.76
2018-06-22T13:09:38.362Z,62.58
2018-06-22T13:12:06.724Z,63.86
2018-06-22T13:14:35.041Z,64.78
2018-06-22T13:17:03.352Z,65.03
2018-06-22T13:19:31.589Z,65.73
2018-06-22T13:21:59.813Z,64.89
2018-06-22T13:24:28.096Z,64.90
2018-06-22T13:26:56.317Z,64.01
2018-06-22T13:29:24.548Z,63.61
2018-06-22T13:31:52.850Z,64.28
2018-06-22T13:34:21.120Z,61.15
2018-06-22T13:36:49.401Z,57.14
2018-06-22T13:39:18.856Z,57.55
2018-06-22T13:41:47.745Z,57.48
2018-06-22T13:44:15.993Z,55.07
2018-06-22T13:46:44.952Z,56.95
2018-06-22T13:49:13.423Z,55.80
2018-06-22T13:51:41.673Z,54.07
2018-06-22T13:54:10.140Z,52.56
2018-06-22T13:56:38.614Z,55.08
2018-06-22T13:59:06.905Z,53.61
2018-06-22T14:01:35.596Z,54.32
2018-06-22T14:04:09.075Z,53.12
2018-06-22T14:06:42.681Z,54.84
2018-06-22T14:09:13.654Z,53.99
2018-06-22T14:11:42.560Z,53.17
2018-06-22T14:14:10.888Z,54.07
2018-06-22T14:16:39.416Z,54.39
2018-06-22T14:19:08.140Z,54.58
2018-06-22T14:21:36.573Z,53.62
2018-06-22T14:24:05.450Z,53.90
2018-06-22T14:26:33.960Z,52.60
2018-06-22T14:29:02.357Z,53.38
2018-06-22T14:31:31.047Z,50.51
2018-06-22T14:33:59.282Z,49.30
2018-06-22T14:36:27.549Z,50.96
2018-06-22T14:38:55.986Z,51.12
2018-06-22T14:41:24.372Z,49.53
2018-06-22T14:43:52.776Z,50.26
2018-06-22T14:46:21.045Z,49.59
2018-06-22T14:48:49.690Z,51.05
2018-06-22T14:51:17.896Z,49.16
2018-06-22T14:53:51.612Z,50.21
2018-06-22T14:56:25.267Z,47.88
2018-06-22T14:58:58.857Z,48.98
2018-06-22T15:01:32.816Z,49.66
2018-06-22T15:04:06.517Z,48.25
2018-06-22T15:06:40.012Z,46.65
2018-06-22T15:09:09.812Z,47.71
2018-06-22T15:11:38.465Z,46.55
2018-06-22T15:14:06.760Z,46.77
2018-06-22T15:16:35.198Z,46.75
2018-06-22T15:19:03.624Z,47.50
2018-06-22T15:21:31.892Z,47.05
2018-06-22T15:24:00.164Z,48.27
2018-06-22T15:26:28.568Z,47.17
2018-06-22T15:28:56.861Z,46.25
2018-06-22T15:31:25.393Z,48.16
2018-06-22T15:33:58.904Z,46.92
2018-06-22T15:36:32.709Z,47.33
2018-06-22T15:39:07.372Z,45.53
2018-06-22T15:41:40.787Z,46.30
2018-06-22T15:44:14.460Z,46.25
2018-06-22T15:46:48.061Z,45.78
2018-06-22T15:49:21.768Z,45.13
2018-06-22T15:51:55.541Z,46.45
2018-06-22T15:54:29.174Z,46.82
2018-06-22T15:56:57.669Z,46.51
2018-06-22T15:59:26.154Z,46.05
2018-06-22T16:01:58.644Z,48.24
2018-06-22T16:04:26.931Z,44.95
2018-06-22T16:06:55.169Z,43.93
2018-06-22T16:09:23.397Z,44.45
2018-06-22T16:11:51.681Z,44.72
2018-06-22T16:14:25.169Z,43.60
2018-06-22T16:16:58.649Z,44.04
2018-06-22T16:20:35.172Z,45.17
2018-06-22T16:23:08.785Z,45.99
2018-06-22T16:25:42.381Z,47.49
2018-06-22T16:28:10.626Z,47.77
2018-06-22T16:30:38.988Z,46.97
2018-06-22T16:33:07.177Z,47.46
2018-06-22T16:35:35.624Z,48.30
2018-06-22T16:38:04.226Z,47.58
2018-06-22T16:40:32.486Z,48.43
2018-06-22T16:43:00.744Z,49.50
2018-06-22T16:45:28.974Z,49.84
2018-06-22T16:47:57.396Z,50.34
2018-06-22T16:50:26.365Z,49.33
2018-06-22T16:52:54.730Z,49.73
2018-06-22T16:55:22.988Z,48.76
2018-06-22T16:57:51.360Z,48.51
2018-06-22T17:00:19.561Z,46.25
2018-06-22T17:02:47.820Z,45.03
2018-06-22T17:05:16.067Z,45.66
2018-06-22T17:07:49.596Z,47.09
2018-06-22T17:10:23.041Z,47.55
2018-06-22T17:12:56.581Z,49.14
2018-06-22T17:15:31.013Z,47.16
2018-06-22T17:18:04.481Z,45.04
2018-06-22T17:20:32.758Z,44.99
2018-06-22T17:23:01.068Z,44.76
2018-06-22T17:25:29.325Z,43.35
2018-06-22T17:27:57.576Z,43.79
2018-06-22T17:30:25.847Z,43.23
2018-06-22T17:32:54.061Z,42.34
2018-06-22T17:35:22.381Z,42.91
2018-06-22T17:37:50.638Z,42.16
2018-06-22T17:40:18.888Z,42.92
2018-06-22T17:42:47.476Z,42.75
2018-06-22T17:45:15.769Z,41.91
2018-06-22T17:47:44.044Z,42.19
2018-06-22T17:50:17.585Z,43.27
2018-06-22T17:52:45.908Z,43.04
2018-06-22T17:55:14.181Z,43.80
2018-06-22T17:57:42.761Z,43.19
2018-06-22T18:00:18.408Z,43.55
2018-06-22T18:02:52.105Z,44.13
2018-06-22T18:05:25.710Z,44.12
2018-06-22T18:07:53.980Z,44.24
2018-06-22T18:10:27.425Z,44.43
2018-06-22T18:12:56.858Z,44.31
2018-06-22T18:15:24.995Z,45.32
2018-06-22T18:17:53.261Z,45.41
2018-06-22T18:20:21.493Z,46.56
2018-06-22T18:22:49.810Z,47.24
2018-06-22T18:25:18.077Z,47.58
2018-06-22T18:27:46.329Z,48.27
2018-06-22T18:30:15.833Z,48.42
2018-06-22T18:32:44.088Z,48.56
2018-06-22T18:35:13.828Z,49.17
2018-06-22T18:37:42.226Z,49.48
2018-06-22T18:40:11.234Z,50.32
2018-06-22T18:42:39.748Z,50.86
2018-06-22T18:45:09.567Z,50.95
2018-06-22T18:47:37.804Z,50.05
2018-06-22T18:50:06.037Z,50.53
2018-06-22T18:52:39.784Z,50.96
2018-06-22T18:55:13.653Z,51.37
2018-06-22T18:57:47.141Z,52.33
2018-06-22T19:00:20.577Z,51.82
2018-06-22T19:02:54.289Z,52.22
2018-06-22T19:05:22.716Z,52.23
2018-06-22T19:07:51.053Z,51.36
2018-06-22T19:10:19.321Z,52.58
2018-06-22T19:12:47.741Z,52.36
2018-06-22T19:15:15.967Z,52.72
2018-06-22T19:17:44.338Z,53.29
2018-06-22T19:20:12.622Z,52.09
2018-06-22T19:22:40.868Z,52.83
2018-06-22T19:25:09.116Z,53.05
2018-06-22T19:27:37.509Z,52.90
2018-06-22T19:30:06.437Z,51.99
2018-06-22T19:32:34.647Z,51.97
2018-06-22T19:35:08.236Z,52.11
2018-06-22T19:37:36.449Z,53.15
2018-06-22T19:40:04.744Z,52.91
2018-06-22T19:42:32.941Z,53.49
2018-06-22T19:45:06.431Z,54.02
2018-06-22T19:47:39.913Z,54.19
2018-06-22T19:50:13.445Z,53.19
2018-06-22T19:52:46.878Z,53.30
2018-06-22T19:55:15.129Z,54.08
2018-06-22T19:57:43.501Z,54.16
2018-06-22T20:00:12.104Z,53.82
2018-06-22T20:02:40.381Z,54.64
2018-06-22T20:05:08.688Z,54.35
2018-06-22T20:07:36.940Z,54.08
2018-06-22T20:10:05.687Z,54.42
2018-06-22T20:12:33.918Z,55.13
2018-06-22T20:15:02.181Z,54.52
2018-06-22T20:17:30.548Z,54.82
2018-06-22T20:19:58.844Z,54.14
2018-06-22T20:22:27.085Z,54.60
2018-06-22T20:25:00.708Z,54.91
2018-06-22T20:27:29.017Z,55.30
2018-06-22T20:29:57.301Z,55.17
2018-06-22T20:32:25.557Z,54.97
2018-06-22T20:34:59.276Z,55.68
2018-06-22T20:37:32.968Z,55.01
2018-06-22T20:40:06.285Z,56.17
2018-06-22T20:42:39.933Z,55.64
2018-06-22T20:45:13.472Z,55.79
2018-06-22T20:47:47.233Z,56.10
2018-06-22T20:50:20.872Z,56.43
2018-06-22T20:52:49.158Z,55.92
2018-06-22T20:55:17.458Z,56.02
2018-06-22T20:57:45.709Z,56.08
2018-06-22T21:00:13.984Z,56.12
2018-06-22T21:02:42.231Z,56.10
2018-06-22T21:05:10.513Z,57.44
2018-06-22T21:07:38.741Z,56.92
2018-06-22T21:10:07.297Z,56.14
2018-06-22T21:12:40.418Z,57.72
2018-06-22T21:15:04.050Z,56.85
2018-06-22T21:17:32.265Z,56.98
2018-06-22T21:20:00.488Z,57.57
2018-06-22T21:22:28.713Z,57.80
2018-06-22T21:24:56.943Z,58.11
2018-06-22T21:27:30.423Z,57.17
2018-06-22T21:30:04.061Z,57.66
2018-06-22T21:32:37.584Z,58.44
2018-06-22T21:35:11.260Z,58.50
2018-06-22T21:37:44.904Z,57.75
2018-06-22T21:40:13.137Z,58.20
2018-06-22T21:42:41.374Z,58.81
2018-06-22T21:45:09.612Z,59.06
2018-06-22T21:47:37.917Z,58.92
2018-06-22T21:50:06.169Z,59.19
2018-06-22T21:52:34.378Z,59.30
2018-06-22T21:55:02.640Z,58.43
2018-06-22T21:57:30.888Z,58.86
2018-06-22T21:59:59.165Z,59.09
2018-06-22T22:02:27.425Z,59.18
2018-06-22T22:04:55.647Z,59.08
2018-06-22T22:07:23.890Z,59.11
2018-06-22T22:09:52.129Z,58.33
2018-06-22T22:12:20.353Z,59.33
2018-06-22T22:14:48.568Z,59.24
2018-06-22T22:17:16.808Z,59.69
2018-06-22T22:19:45.053Z,59.03
2018-06-22T22:22:13.300Z,59.09
2018-06-22T22:24:41.533Z,58.44
2018-06-22T22:27:09.830Z,59.49
2018-06-22T22:29:38.120Z,59.45
2018-06-22T22:32:06.400Z,59.06
2018-06-22T22:34:34.704Z,59.70
2018-06-22T22:37:02.969Z,59.00
2018-06-22T22:39:31.213Z,59.77
2018-06-22T22:41:59.464Z,59.69
2018-06-22T22:44:27.689Z,59.99
2018-06-22T22:46:56.069Z,60.01
2018-06-22T22:49:24.346Z,59.66
2018-06-22T22:51:52.561Z,59.98
2018-06-22T22:54:20.809Z,59.67
2018-06-22T22:56:49.041Z,60.00
2018-06-22T22:59:17.260Z,59.99
2018-06-22T23:01:45.609Z,60.05
2018-06-22T23:04:13.858Z,60.08
2018-06-22T23:06:42.208Z,59.92
2018-06-22T23:09:10.635Z,60.32
2018-06-22T23:11:38.963Z,59.62
2018-06-22T23:14:07.241Z,59.84
2018-06-22T23:16:35.500Z,59.70
2018-06-22T23:19:03.739Z,60.17
2018-06-22T23:21:31.965Z,59.98
2018-06-22T23:24:00.327Z,61.63
2018-06-22T23:26:28.540Z,61.20
2018-06-22T23:28:56.837Z,61.50
2018-06-22T23:31:25.109Z,61.64
2018-06-22T23:33:53.336Z,61.06
2018-06-22T23:36:21.609Z,61.69
2018-06-22T23:38:49.872Z,61.23
2018-06-22T23:41:18.136Z,62.11
2018-06-22T23:43:46.345Z,61.63
2018-06-22T23:46:14.604Z,62.50
2018-06-22T23:48:42.821Z,61.78
2018-06-22T23:51:11.107Z,62.09
2018-06-22T23:53:39.373Z,62.85
2018-06-22T23:56:07.635Z,62.52
2018-06-22T23:58:35.876Z,62.13
